Terminal Aerodrome Forecast
Issued by NWS

Home | Current Version | Previous Version | Text Only | Print | Product List | Glossary On
Versions: 1 2 3 4 5 6 7 8 9 10 11 12 13 14 15 16 17 18 19 20 21
000
FTPA31 PHFO 270302 AAD
TAFHLI
TAF AMD
PHLI 270302Z 2703/2724 06012KT 6SM -SHRA BKN015 OVC045
     FM270500 06007KT P6SM SCT020 BKN050
     FM272100 03012KT P6SM VCSH SCT020 BKN045=

USA.gov is the U.S. government's official web portal to all federal, state and local government web resources and services.